Time;durP1;ratioP1;P1;durP2;ratioP2;P2;SDS_P1;SDS_P2;PMS_P1;PMS_P2;Temp;Humidity;BMP_temperature;BMP_pressure;BME280_temperature;BME280_humidity;BME280_pressure;Samples;Min_cycle;Max_cycle;Signal;HPM_P1;HPM_P2
2021/06/15 00:00:40;;;;;;;9.60;7.10;;;25.50;94.30;;;;;;5091924;28;20032;-85
2021/06/15 00:03:05;;;;;;;8.82;6.78;;;25.50;94.30;;;;;;5093243;28;20028;-85
2021/06/15 00:05:31;;;;;;;9.20;6.72;;;25.50;94.40;;;;;;5074797;28;20029;-84
2021/06/15 00:07:57;;;;;;;7.97;6.88;;;25.50;94.40;;;;;;5058299;28;20505;-84
2021/06/15 00:10:25;;;;;;;7.95;6.75;;;25.50;94.40;;;;;;5092206;28;20032;-85
2021/06/15 00:12:52;;;;;;;7.72;6.70;;;25.50;94.40;;;;;;5092739;28;20051;-85
2021/06/15 00:15:19;;;;;;;8.73;6.32;;;25.50;94.40;;;;;;5091519;28;20052;-85
2021/06/15 00:17:45;;;;;;;8.88;6.80;;;25.50;94.50;;;;;;5091667;28;20059;-84
2021/06/15 00:20:13;;;;;;;7.70;6.35;;;25.50;94.50;;;;;;5074854;28;20043;-85
2021/06/15 00:22:39;;;;;;;6.90;5.35;;;25.50;94.50;;;;;;5091696;28;20123;-84
2021/06/15 00:25:06;;;;;;;8.48;6.20;;;25.50;94.50;;;;;;5091869;28;20040;-84
2021/06/15 00:27:32;;;;;;;8.93;6.30;;;25.50;94.60;;;;;;5092917;28;20032;-84
2021/06/15 00:29:58;;;;;;;7.78;6.32;;;25.50;94.50;;;;;;5058017;28;20426;-84
2021/06/15 00:32:24;;;;;;;8.27;6.20;;;25.50;94.60;;;;;;5091923;28;20381;-84
2021/06/15 00:34:50;;;;;;;8.48;6.22;;;25.50;94.80;;;;;;5091595;28;20024;-84
2021/06/15 00:37:15;;;;;;;6.28;5.55;;;25.50;94.60;;;;;;5058474;28;20339;-84
2021/06/15 00:39:41;;;;;;;8.48;6.07;;;25.50;94.50;;;;;;5074754;28;20414;-86
2021/06/15 00:42:07;;;;;;;7.68;6.50;;;25.50;94.50;;;;;;5074859;28;20101;-83
2021/06/15 00:44:34;;;;;;;8.00;6.38;;;25.50;94.50;;;;;;5091740;28;20055;-86
2021/06/15 00:47:00;;;;;;;9.77;6.35;;;25.50;94.50;;;;;;5074238;28;20470;-84
2021/06/15 00:49:30;;;;;;;8.48;6.30;;;25.50;94.50;;;;;;5091594;28;20035;-84
2021/06/15 00:51:56;;;;;;;7.57;6.22;;;25.50;94.50;;;;;;5091292;28;20367;-84
2021/06/15 00:54:23;;;;;;;8.93;6.47;;;25.50;94.50;;;;;;5074443;28;20062;-85
2021/06/15 00:56:49;;;;;;;9.63;6.85;;;25.50;94.50;;;;;;5074418;28;20504;-85
2021/06/15 00:59:15;;;;;;;8.25;6.28;;;25.50;94.50;;;;;;5091433;28;20055;-85
2021/06/15 01:01:41;;;;;;;7.05;5.97;;;25.50;94.50;;;;;;5091238;28;20028;-86
2021/06/15 01:04:07;;;;;;;9.35;6.45;;;25.50;94.40;;;;;;5091848;28;20115;-85
2021/06/15 01:06:38;;;;;;;8.63;6.55;;;25.50;94.40;;;;;;5077602;28;20031;-84
2021/06/15 01:09:12;;;;;;;10.18;7.05;;;25.40;94.30;;;;;;5095880;28;20056;-85
2021/06/15 01:11:50;;;;;;;;;;;25.40;94.30;;;;;;5095416;28;20020;-84
2021/06/15 01:14:39;;;;;;;8.07;6.32;;;25.40;94.20;;;;;;5096134;28;19970;-85
2021/06/15 01:17:30;;;;;;;7.78;6.45;;;25.40;94.20;;;;;;5094700;28;20028;-84
2021/06/15 01:20:17;;;;;;;8.80;6.78;;;25.40;94.20;;;;;;5095555;28;20433;-84
2021/06/15 01:23:20;;;;;;;7.20;6.20;;;25.40;94.10;;;;;;5094664;28;20078;-85
2021/06/15 01:26:19;;;;;;;7.32;5.82;;;25.40;94.10;;;;;;5095931;28;20039;-85
2021/06/15 01:28:54;;;;;;;7.80;6.38;;;25.40;94.10;;;;;;5094181;28;20142;-85
2021/06/15 01:31:38;;;;;;;6.90;5.25;;;25.30;94.00;;;;;;5094652;28;20032;-85
2021/06/15 01:34:13;;;;;;;7.43;6.25;;;25.30;94.00;;;;;;5091915;28;20032;-85
2021/06/15 01:36:59;;;;;;;7.90;6.22;;;25.30;94.00;;;;;;5094712;28;20367;-85
2021/06/15 01:39:28;;;;;;;6.65;5.45;;;25.30;93.90;;;;;;5095471;28;20028;-85
2021/06/15 01:42:00;;;;;;;8.68;5.90;;;25.30;93.90;;;;;;5095447;28;20047;-85
2021/06/15 01:44:27;;;;;;;6.95;5.43;;;25.30;93.90;;;;;;5095586;28;20027;-85
2021/06/15 01:47:12;;;;;;;7.68;5.80;;;25.30;93.80;;;;;;5094303;28;20032;-85
2021/06/15 01:49:47;;;;;;;7.72;5.28;;;25.30;93.80;;;;;;5094092;28;20032;-85
2021/06/15 01:52:16;;;;;;;7.53;5.25;;;25.30;93.70;;;;;;5094067;28;20470;-85
2021/06/15 01:54:43;;;;;;;7.55;5.28;;;25.30;93.70;;;;;;5094051;28;20024;-85
2021/06/15 01:57:11;;;;;;;6.45;5.05;;;25.30;93.70;;;;;;5093761;28;20040;-85
2021/06/15 01:59:40;;;;;;;6.38;5.18;;;25.30;93.70;;;;;;5077078;28;20028;-85
2021/06/15 02:02:06;;;;;;;6.03;4.80;;;25.30;93.60;;;;;;5093683;28;20028;-85
2021/06/15 02:04:41;;;;;;;5.40;4.90;;;25.30;93.60;;;;;;5093801;28;20040;-85
2021/06/15 02:07:12;;;;;;;8.25;5.05;;;25.30;93.60;;;;;;5093662;28;20055;-85
2021/06/15 02:09:41;;;;;;;7.68;5.13;;;25.30;93.60;;;;;;5093932;28;20027;-85
2021/06/15 02:12:07;;;;;;;5.95;4.72;;;25.30;93.50;;;;;;5093350;28;20115;-85
2021/06/15 02:14:34;;;;;;;6.20;4.57;;;25.30;93.40;;;;;;5093866;28;20093;-85
2021/06/15 02:17:01;;;;;;;6.15;4.68;;;25.30;93.40;;;;;;5092717;28;20040;-85
2021/06/15 02:19:30;;;;;;;4.93;4.25;;;25.30;93.40;;;;;;5076933;28;20089;-84
2021/06/15 02:22:00;;;;;;;6.63;4.32;;;25.30;93.30;;;;;;5076894;28;20032;-84
2021/06/15 02:24:37;;;;;;;4.95;3.88;;;25.20;93.30;;;;;;5093514;28;20026;-84
2021/06/15 02:27:03;;;;;;;5.65;4.30;;;25.20;93.30;;;;;;5093179;28;20035;-84
2021/06/15 02:29:29;;;;;;;5.15;4.07;;;25.20;93.30;;;;;;5094476;28;20032;-84
2021/06/15 02:31:59;;;;;;;5.30;4.22;;;25.30;93.30;;;;;;5076504;28;20129;-84
2021/06/15 02:34:28;;;;;;;5.40;4.07;;;25.20;93.20;;;;;;5094451;28;20035;-84
2021/06/15 02:36:56;;;;;;;4.57;3.63;;;25.20;93.20;;;;;;5092940;28;20024;-85
2021/06/15 02:39:27;;;;;;;4.63;3.88;;;25.20;93.20;;;;;;5093351;28;20063;-84
2021/06/15 02:41:53;;;;;;;4.55;3.67;;;25.20;93.10;;;;;;5094387;28;20476;-85
2021/06/15 02:44:23;;;;;;;4.57;3.47;;;25.20;93.10;;;;;;5093283;28;20047;-84
2021/06/15 02:46:50;;;;;;;4.00;3.60;;;25.20;93.10;;;;;;5094381;28;20020;-84
2021/06/15 02:49:22;;;;;;;5.40;3.78;;;25.20;93.10;;;;;;5094298;28;20024;-84
2021/06/15 02:52:05;;;;;;;4.20;3.42;;;25.20;93.10;;;;;;5093090;28;20024;-84
2021/06/15 02:54:53;;;;;;;4.43;3.10;;;25.20;93.10;;;;;;5094271;28;20024;-85
2021/06/15 02:57:20;;;;;;;3.97;3.10;;;25.20;93.00;;;;;;5093294;28;20086;-85
2021/06/15 02:59:46;;;;;;;4.25;3.30;;;25.20;93.00;;;;;;5059591;28;20024;-84
2021/06/15 03:02:12;;;;;;;4.00;3.10;;;25.20;93.00;;;;;;5093675;28;20137;-84
2021/06/15 03:04:38;;;;;;;3.67;2.83;;;25.20;93.00;;;;;;5075897;28;20133;-84
2021/06/15 03:07:03;;;;;;;3.42;3.13;;;25.20;93.00;;;;;;5092520;28;20541;-84
2021/06/15 03:09:30;;;;;;;4.90;3.38;;;25.20;93.00;;;;;;5093700;28;20036;-84
2021/06/15 03:12:11;;;;;;;6.90;3.80;;;25.20;92.90;;;;;;5092281;28;20032;-85
2021/06/15 03:14:39;;;;;;;5.50;3.30;;;25.20;92.90;;;;;;5092871;28;20020;-85
2021/06/15 03:17:07;;;;;;;4.25;2.80;;;25.20;92.90;;;;;;5093664;28;20024;-85
2021/06/15 03:19:46;;;;;;;3.75;2.80;;;25.20;92.90;;;;;;5093481;28;20370;-85
2021/06/15 03:22:20;;;;;;;4.72;3.25;;;25.20;92.90;;;;;;5092346;28;20186;-84
2021/06/15 03:24:52;;;;;;;4.25;2.50;;;25.20;92.90;;;;;;5093822;28;20028;-84
2021/06/15 03:27:39;;;;;;;4.30;2.83;;;25.20;92.90;;;;;;5091868;28;20089;-84
2021/06/15 03:30:11;;;;;;;4.00;2.40;;;25.20;92.80;;;;;;5092186;28;20034;-84
2021/06/15 03:32:46;;;;;;;3.47;2.50;;;25.20;92.80;;;;;;5092233;28;20024;-84
2021/06/15 03:35:14;;;;;;;5.57;3.05;;;25.10;92.80;;;;;;5092115;28;20115;-84
2021/06/15 03:37:48;;;;;;;4.82;2.97;;;25.20;92.80;;;;;;5059003;28;20142;-84
2021/06/15 03:40:15;;;;;;;3.72;2.83;;;25.10;92.70;;;;;;5092002;28;20024;-84
2021/06/15 03:42:41;;;;;;;3.75;2.42;;;25.20;92.70;;;;;;5076267;28;20066;-85
2021/06/15 03:45:09;;;;;;;4.10;2.95;;;25.10;92.60;;;;;;5058468;28;20032;-85
2021/06/15 03:47:37;;;;;;;2.90;2.58;;;25.10;92.60;;;;;;5058789;28;20363;-84
2021/06/15 03:50:04;;;;;;;3.08;2.53;;;25.10;92.60;;;;;;5093340;28;20097;-85
2021/06/15 03:52:34;;;;;;;3.10;2.53;;;25.10;92.60;;;;;;5093687;28;20038;-84
2021/06/15 03:55:02;;;;;;;4.68;2.75;;;25.10;92.60;;;;;;5092712;28;20415;-85
2021/06/15 03:57:29;;;;;;;2.75;2.20;;;25.10;92.50;;;;;;5091987;28;20127;-84
2021/06/15 03:59:56;;;;;;;2.90;2.50;;;25.10;92.50;;;;;;5058516;28;20546;-84
2021/06/15 04:02:25;;;;;;;3.60;3.00;;;25.10;92.50;;;;;;5093039;28;20059;-84
2021/06/15 04:04:53;;;;;;;4.20;2.60;;;25.10;92.50;;;;;;5091913;28;20028;-84
2021/06/15 04:07:21;;;;;;;3.92;2.70;;;25.10;92.40;;;;;;5092519;28;20055;-84
2021/06/15 04:09:48;;;;;;;3.55;2.42;;;25.10;92.40;;;;;;5091887;28;20029;-84
2021/06/15 04:12:15;;;;;;;2.85;2.38;;;25.10;92.40;;;;;;5091698;28;20181;-85
2021/06/15 04:14:46;;;;;;;2.50;2.17;;;25.10;92.40;;;;;;5092063;28;20024;-85
2021/06/15 04:17:16;;;;;;;3.25;2.45;;;25.10;92.30;;;;;;5091861;28;20084;-85
2021/06/15 04:19:45;;;;;;;3.67;2.47;;;25.10;92.30;;;;;;5091910;28;20438;-85
2021/06/15 04:22:14;;;;;;;3.00;2.33;;;25.10;92.30;;;;;;5091589;28;20024;-85
2021/06/15 04:24:45;;;;;;;2.50;2.22;;;25.10;92.20;;;;;;5074963;28;20028;-85
2021/06/15 04:27:11;;;;;;;2.88;2.15;;;25.10;92.20;;;;;;5092703;28;20113;-85
2021/06/15 04:29:37;;;;;;;4.00;2.10;;;25.00;92.20;;;;;;5074854;28;20039;-85
2021/06/15 04:32:08;;;;;;;3.92;2.22;;;25.00;92.10;;;;;;5092717;28;20032;-87
2021/06/15 04:34:38;;;;;;;3.35;2.22;;;25.10;92.10;;;;;;5092946;28;20021;-85
2021/06/15 04:37:08;;;;;;;2.50;1.90;;;25.00;92.10;;;;;;5091543;28;20409;-86
2021/06/15 04:39:39;;;;;;;2.55;1.80;;;25.00;92.10;;;;;;5093204;28;20103;-85
2021/06/15 04:42:08;;;;;;;3.00;2.00;;;25.00;92.10;;;;;;5096705;28;20123;-86
2021/06/15 04:44:41;;;;;;;2.03;1.83;;;25.00;92.10;;;;;;5095607;28;20043;-84
2021/06/15 04:47:24;;;;;;;3.30;2.00;;;25.10;92.10;;;;;;5094794;28;20066;-86
2021/06/15 04:49:54;;;;;;;3.50;1.83;;;25.00;92.00;;;;;;5095528;28;20119;-85
2021/06/15 04:52:25;;;;;;;3.28;2.10;;;25.00;92.20;;;;;;5095169;28;20426;-85
2021/06/15 04:54:52;;;;;;;4.63;2.33;;;25.00;92.00;;;;;;5095296;28;20116;-85
2021/06/15 04:57:27;;;;;;;2.85;2.03;;;25.00;91.90;;;;;;5096246;28;20020;-85
2021/06/15 04:59:56;;;;;;;4.85;2.20;;;25.00;91.90;;;;;;5095873;28;20020;-85
2021/06/15 05:02:24;;;;;;;3.58;1.88;;;25.00;91.90;;;;;;5094802;28;20441;-85
2021/06/15 05:04:51;;;;;;;2.33;1.80;;;25.00;91.90;;;;;;5095294;28;20020;-85
2021/06/15 05:07:19;;;;;;;4.60;1.60;;;25.00;91.90;;;;;;5096349;28;20032;-84
2021/06/15 05:09:49;;;;;;;3.40;1.63;;;25.00;91.90;;;;;;5061679;28;20032;-85
2021/06/15 05:12:15;;;;;;;3.80;1.65;;;25.00;91.80;;;;;;5094246;28;20063;-85
2021/06/15 05:14:43;;;;;;;2.70;1.70;;;25.00;91.80;;;;;;5094980;28;20040;-85
2021/06/15 05:17:09;;;;;;;2.38;1.30;;;25.00;91.70;;;;;;5094028;28;20036;-86
2021/06/15 05:19:39;;;;;;;3.17;1.80;;;25.00;91.70;;;;;;5077791;28;20485;-85
2021/06/15 05:22:11;;;;;;;3.35;1.58;;;25.00;91.70;;;;;;5094749;28;20024;-85
2021/06/15 05:24:50;;;;;;;2.15;1.52;;;25.00;91.80;;;;;;5095897;28;20027;-85
2021/06/15 05:27:18;;;;;;;2.35;1.33;;;25.00;91.60;;;;;;5095521;28;20057;-85
2021/06/15 05:29:44;;;;;;;3.97;1.70;;;25.00;91.50;;;;;;5094494;28;20034;-84
2021/06/15 05:32:10;;;;;;;2.90;1.55;;;25.00;91.50;;;;;;5077278;28;20024;-87
2021/06/15 05:34:36;;;;;;;1.80;1.60;;;25.00;91.40;;;;;;5095774;28;20069;-84
2021/06/15 05:37:03;;;;;;;2.72;1.60;;;25.00;91.40;;;;;;5095393;28;20067;-84
2021/06/15 05:39:30;;;;;;;3.08;1.63;;;25.00;91.50;;;;;;5077356;28;20056;-85
2021/06/15 05:41:56;;;;;;;2.20;1.33;;;25.00;91.80;;;;;;5095364;28;20028;-85
2021/06/15 05:44:21;;;;;;;3.58;1.60;;;25.00;92.20;;;;;;5060378;28;20029;-85
2021/06/15 05:46:47;;;;;;;6.07;1.70;;;25.00;92.70;;;;;;5077261;28;20035;-85
2021/06/15 05:49:13;;;;;;;3.80;1.20;;;25.10;93.10;;;;;;5093962;28;20064;-86
2021/06/15 05:51:39;;;;;;;3.15;1.50;;;25.00;93.20;;;;;;5077157;28;20081;-85
2021/06/15 05:54:05;;;;;;;3.42;1.30;;;25.10;93.10;;;;;;5077461;28;20032;-86
2021/06/15 05:56:32;;;;;;;5.38;1.60;;;25.10;92.80;;;;;;5094571;28;20153;-85
2021/06/15 05:58:58;;;;;;;5.80;1.45;;;25.10;92.60;;;;;;5094193;28;20105;-85
2021/06/15 06:01:25;;;;;;;4.20;1.58;;;25.10;92.40;;;;;;5077111;28;20070;-85
2021/06/15 06:04:04;;;;;;;3.45;1.67;;;25.10;92.30;;;;;;5077394;28;20032;-85
2021/06/15 06:09:13;;;;;;;4.15;1.70;;;25.10;92.00;;;;;;5095261;28;20381;-86
2021/06/15 06:11:40;;;;;;;4.00;1.50;;;25.00;91.90;;;;;;5095420;28;20037;-84
2021/06/15 06:14:06;;;;;;;4.07;1.50;;;25.10;91.90;;;;;;5094560;28;20093;-84
2021/06/15 06:16:33;;;;;;;1.67;0.90;;;25.10;91.90;;;;;;5076710;28;20031;-85
2021/06/15 06:19:00;;;;;;;3.30;1.40;;;25.10;91.90;;;;;;5094759;28;20024;-84
2021/06/15 06:21:28;;;;;;;2.78;1.20;;;25.10;92.00;;;;;;5076750;28;20073;-84
2021/06/15 06:23:53;;;;;;;2.83;1.40;;;25.10;92.00;;;;;;5095146;28;20026;-84
2021/06/15 06:26:19;;;;;;;2.53;1.42;;;25.10;92.00;;;;;;5076248;28;20123;-85
2021/06/15 06:28:45;;;;;;;2.83;1.40;;;25.10;92.40;;;;;;5093282;28;20036;-84
2021/06/15 06:31:10;;;;;;;2.50;1.35;;;25.20;92.90;;;;;;5059877;28;20147;-84
2021/06/15 06:33:36;;;;;;;2.92;1.30;;;25.20;93.10;;;;;;5060073;28;20081;-83
2021/06/15 06:36:02;;;;;;;2.75;1.58;;;25.20;93.10;;;;;;5093585;28;20229;-84
2021/06/15 06:38:27;;;;;;;3.38;1.67;;;25.20;92.90;;;;;;5093788;28;20432;-84
2021/06/15 06:40:53;;;;;;;3.53;1.27;;;25.20;92.80;;;;;;5059712;28;20542;-84
2021/06/15 06:43:18;;;;;;;3.83;1.38;;;25.20;92.60;;;;;;5094165;28;20028;-85
2021/06/15 06:45:44;;;;;;;4.82;2.10;;;25.20;92.40;;;;;;5093396;28;20438;-84
2021/06/15 06:48:11;;;;;;;3.60;1.40;;;25.20;92.30;;;;;;5076280;28;20082;-84
2021/06/15 06:50:37;;;;;;;2.22;1.30;;;25.20;92.10;;;;;;5076084;28;20047;-84
2021/06/15 06:53:03;;;;;;;1.42;1.08;;;25.20;92.00;;;;;;5093201;28;20031;-84
2021/06/15 06:55:29;;;;;;;2.30;1.00;;;25.20;91.90;;;;;;5092718;28;20469;-83
2021/06/15 06:57:55;;;;;;;2.97;1.33;;;25.20;91.70;;;;;;5076397;28;20028;-84
2021/06/15 07:00:22;;;;;;;2.75;1.27;;;25.20;91.70;;;;;;5075818;28;20028;-85
2021/06/15 07:02:48;;;;;;;2.33;1.35;;;25.20;91.60;;;;;;5093628;28;20028;-84
2021/06/15 07:05:14;;;;;;;2.15;1.20;;;25.20;91.60;;;;;;5092638;28;20032;-84
2021/06/15 07:07:40;;;;;;;1.58;1.08;;;25.20;91.50;;;;;;5092361;28;20386;-84
2021/06/15 07:10:06;;;;;;;2.38;1.17;;;25.20;91.50;;;;;;5076107;28;20028;-84
2021/06/15 07:12:31;;;;;;;2.35;1.30;;;25.20;91.40;;;;;;5093712;28;20194;-84
2021/06/15 07:14:57;;;;;;;2.03;1.20;;;25.20;91.30;;;;;;5092791;28;20506;-84
2021/06/15 07:17:23;;;;;;;3.35;1.63;;;25.20;91.40;;;;;;5092585;28;20462;-85
2021/06/15 07:19:48;;;;;;;2.58;1.60;;;25.20;91.30;;;;;;5075505;28;20032;-84
2021/06/15 07:22:14;;;;;;;2.88;1.55;;;25.20;91.20;;;;;;5092608;28;20104;-84
2021/06/15 07:24:40;;;;;;;1.60;1.30;;;25.20;91.20;;;;;;5058681;28;20074;-84
2021/06/15 07:27:06;;;;;;;2.17;1.40;;;25.20;91.10;;;;;;5092443;28;20040;-84
2021/06/15 07:29:31;;;;;;;3.05;1.33;;;25.20;91.10;;;;;;5093012;28;20024;-84
2021/06/15 07:31:57;;;;;;;2.65;1.55;;;25.20;91.00;;;;;;5092144;28;20024;-83
2021/06/15 07:34:23;;;;;;;2.67;1.60;;;25.20;91.00;;;;;;5091613;28;20100;-85
2021/06/15 07:36:49;;;;;;;2.45;1.40;;;25.20;91.00;;;;;;5073516;28;20036;-85
2021/06/15 07:39:15;;;;;;;2.47;1.50;;;25.20;91.00;;;;;;5074920;28;20093;-84
2021/06/15 07:41:40;;;;;;;3.08;1.65;;;25.20;90.90;;;;;;5091574;28;20059;-85
2021/06/15 07:44:06;;;;;;;2.47;1.38;;;25.20;90.90;;;;;;5075184;28;20436;-85
2021/06/15 07:46:32;;;;;;;2.95;1.60;;;25.20;90.90;;;;;;5091821;28;20363;-84
2021/06/15 07:48:58;;;;;;;3.33;1.58;;;25.20;90.90;;;;;;5074957;28;20028;-84
2021/06/15 07:51:24;;;;;;;3.40;1.38;;;25.20;90.80;;;;;;5092217;28;20028;-84
2021/06/15 07:53:49;;;;;;;2.67;1.50;;;25.20;90.80;;;;;;5091927;28;20039;-84
2021/06/15 07:56:16;;;;;;;2.08;1.45;;;25.20;90.80;;;;;;5093124;28;20432;-85
2021/06/15 07:58:42;;;;;;;3.53;1.27;;;25.20;90.80;;;;;;5091841;28;20541;-84
2021/06/15 08:01:07;;;;;;;1.88;1.30;;;25.20;90.80;;;;;;5074876;28;20052;-83
2021/06/15 08:03:33;;;;;;;1.40;0.90;;;25.20;90.80;;;;;;5093268;28;20103;-85
2021/06/15 08:05:59;;;;;;;2.92;1.17;;;25.20;90.70;;;;;;5075052;28;20024;-84
2021/06/15 08:08:25;;;;;;;2.42;1.50;;;25.20;90.70;;;;;;5091974;28;20366;-84
2021/06/15 08:10:51;;;;;;;1.60;1.10;;;25.20;90.70;;;;;;5091927;28;20036;-84
2021/06/15 08:13:16;;;;;;;1.80;1.45;;;25.30;90.70;;;;;;5091251;28;20088;-84
2021/06/15 08:15:42;;;;;;;2.47;1.25;;;25.30;90.60;;;;;;5076927;28;20067;-84
2021/06/15 08:18:08;;;;;;;2.90;1.25;;;25.30;90.60;;;;;;5095718;28;20040;-84
2021/06/15 08:20:34;;;;;;;1.42;1.13;;;25.30;90.60;;;;;;5096965;28;20084;-84
2021/06/15 08:23:00;;;;;;;2.00;1.30;;;25.30;90.50;;;;;;5078955;28;20123;-84
2021/06/15 08:25:26;;;;;;;2.85;1.27;;;25.30;90.60;;;;;;5062228;28;20119;-84
2021/06/15 08:27:52;;;;;;;1.92;1.15;;;25.30;90.60;;;;;;5095721;28;20466;-84
2021/06/15 08:30:18;;;;;;;2.47;1.30;;;25.30;90.50;;;;;;5078942;28;20032;-84
2021/06/15 08:32:44;;;;;;;2.03;1.20;;;25.30;90.50;;;;;;5097132;28;20105;-84
2021/06/15 08:35:10;;;;;;;1.17;0.85;;;25.30;90.50;;;;;;5095660;28;20469;-84
2021/06/15 08:37:36;;;;;;;2.03;1.10;;;25.30;90.50;;;;;;5095237;28;20036;-84
2021/06/15 08:40:04;;;;;;;1.52;1.00;;;25.30;90.50;;;;;;5095651;28;20035;-84
2021/06/15 08:42:30;;;;;;;2.60;1.38;;;25.30;90.50;;;;;;5095174;28;20031;-84
2021/06/15 08:44:56;;;;;;;2.42;1.40;;;25.30;90.50;;;;;;5061795;28;20032;-84
2021/06/15 08:47:22;;;;;;;1.90;1.20;;;25.30;90.50;;;;;;5078637;28;20389;-84
2021/06/15 08:49:47;;;;;;;1.73;1.40;;;25.30;90.50;;;;;;5095459;28;20440;-84
2021/06/15 08:52:14;;;;;;;1.70;1.23;;;25.30;90.50;;;;;;5078512;28;20032;-84
2021/06/15 08:54:40;;;;;;;1.75;1.40;;;25.30;90.60;;;;;;5078224;28;20032;-84
2021/06/15 08:57:06;;;;;;;2.70;1.42;;;25.30;90.60;;;;;;5095328;28;20036;-84
2021/06/15 08:59:32;;;;;;;2.20;1.30;;;25.30;90.60;;;;;;5096890;28;20273;-84
2021/06/15 09:02:06;;;;;;;1.70;1.40;;;25.40;90.60;;;;;;5095068;28;20464;-84
2021/06/15 09:04:33;;;;;;;2.10;1.60;;;25.40;90.50;;;;;;5095376;28;20035;-84
2021/06/15 09:06:59;;;;;;;3.53;1.50;;;25.40;90.40;;;;;;5094986;28;20032;-84
2021/06/15 09:09:38;;;;;;;1.73;1.40;;;25.40;90.40;;;;;;5095087;28;20458;-85
2021/06/15 09:12:05;;;;;;;2.65;1.48;;;25.40;90.40;;;;;;5094950;28;20031;-84
2021/06/15 09:14:48;;;;;;;1.65;1.30;;;25.40;90.50;;;;;;5095795;28;20040;-84
2021/06/15 09:17:35;;;;;;;1.48;1.20;;;25.40;90.40;;;;;;5095077;28;20032;-83
2021/06/15 09:20:25;;;;;;;2.05;1.58;;;25.40;90.40;;;;;;5096370;28;20097;-83
2021/06/15 09:23:02;;;;;;;2.08;1.67;;;25.50;90.40;;;;;;5094877;28;20024;-84
2021/06/15 09:25:29;;;;;;;1.58;1.40;;;25.40;90.40;;;;;;5094508;28;20024;-83
2021/06/15 09:27:55;;;;;;;1.40;1.10;;;25.40;90.40;;;;;;5060900;28;20028;-83
2021/06/15 09:30:25;;;;;;;2.22;1.33;;;25.50;90.50;;;;;;5094639;28;20028;-84
2021/06/15 09:32:52;;;;;;;2.13;1.40;;;25.50;90.50;;;;;;5095286;28;20020;-84
2021/06/15 09:35:21;;;;;;;1.50;1.33;;;25.50;90.50;;;;;;5094515;28;20101;-83
2021/06/15 09:37:47;;;;;;;1.73;1.40;;;25.50;90.50;;;;;;5094272;28;20031;-86
2021/06/15 09:40:13;;;;;;;1.80;1.30;;;25.50;90.50;;;;;;5095682;28;20098;-85
2021/06/15 09:43:12;;;;;;;1.70;1.50;;;25.50;90.50;;;;;;5095392;28;20024;-88
2021/06/15 09:45:42;;;;;;;1.50;1.27;;;25.60;90.50;;;;;;5065430;28;20033;-85
2021/06/15 09:48:30;;;;;;;2.72;1.27;;;25.60;90.50;;;;;;5094087;28;20517;-85
2021/06/15 09:51:00;;;;;;;1.25;1.15;;;25.60;90.50;;;;;;5094010;28;20441;-85
2021/06/15 09:53:28;;;;;;;1.85;1.08;;;25.60;90.50;;;;;;5094199;28;20469;-85
2021/06/15 09:55:56;;;;;;;1.98;1.40;;;25.60;90.60;;;;;;5095137;28;20076;-84
2021/06/15 09:58:43;;;;;;;1.52;1.30;;;25.60;90.60;;;;;;5077410;28;20024;-84
2021/06/15 10:01:10;;;;;;;2.10;1.13;;;25.60;90.50;;;;;;5093946;28;20024;-85
2021/06/15 10:03:36;;;;;;;1.10;1.00;;;25.60;90.50;;;;;;5094047;28;20028;-84
2021/06/15 10:06:03;;;;;;;1.05;0.95;;;25.60;90.50;;;;;;5093937;28;20039;-84
2021/06/15 10:08:45;;;;;;;1.20;1.02;;;25.70;90.50;;;;;;5093925;28;20024;-85
2021/06/15 10:11:11;;;;;;;1.42;1.20;;;25.70;90.40;;;;;;5095301;28;20036;-85
2021/06/15 10:13:38;;;;;;;1.10;1.00;;;25.60;90.40;;;;;;5060047;28;20403;-85
2021/06/15 10:16:04;;;;;;;1.10;1.00;;;25.60;90.40;;;;;;5093776;28;20104;-84
2021/06/15 10:18:32;;;;;;;1.50;1.10;;;25.60;90.40;;;;;;5090073;28;20088;-84
2021/06/15 10:20:57;;;;;;;1.55;1.10;;;25.70;90.50;;;;;;5094347;28;20427;-84
2021/06/15 10:23:23;;;;;;;1.33;1.10;;;25.70;90.50;;;;;;5043816;28;20028;-84
2021/06/15 10:25:49;;;;;;;1.00;0.90;;;25.70;90.50;;;;;;5059902;28;20028;-84
2021/06/15 10:28:15;;;;;;;1.00;0.90;;;25.70;90.50;;;;;;5094876;28;20024;-85
2021/06/15 10:30:45;;;;;;;0.80;0.80;;;25.70;90.50;;;;;;5076772;28;20497;-85
2021/06/15 10:33:16;;;;;;;1.35;0.93;;;25.70;90.40;;;;;;5076235;28;20027;-85
2021/06/15 10:35:45;;;;;;;1.00;0.77;;;25.70;90.40;;;;;;5076466;28;20028;-85
2021/06/15 10:38:17;;;;;;;1.10;1.00;;;25.70;90.40;;;;;;5093601;28;20038;-85
2021/06/15 10:40:46;;;;;;;0.65;0.60;;;25.70;90.40;;;;;;5077520;28;20064;-85
2021/06/15 10:43:18;;;;;;;0.88;0.68;;;25.70;90.40;;;;;;5094120;28;20047;-85
2021/06/15 10:45:46;;;;;;;0.85;0.77;;;25.70;90.40;;;;;;5075653;28;20024;-84
2021/06/15 10:48:15;;;;;;;0.60;0.60;;;25.70;90.50;;;;;;5059234;28;20056;-85
2021/06/15 10:50:44;;;;;;;0.70;0.70;;;25.70;90.40;;;;;;5075976;28;20111;-85
2021/06/15 10:53:11;;;;;;;0.65;0.63;;;25.70;90.30;;;;;;5075808;28;20119;-83
2021/06/15 10:55:50;;;;;;;0.82;0.70;;;25.70;90.30;;;;;;5059606;28;20032;-85
2021/06/15 10:58:34;;;;;;;0.55;0.55;;;25.80;90.30;;;;;;5076945;28;20024;-85
2021/06/15 11:01:39;;;;;;;0.68;0.60;;;25.80;90.30;;;;;;5075461;28;20421;-85
2021/06/15 11:04:04;;;;;;;0.88;0.70;;;25.80;90.30;;;;;;5061756;28;20124;-86
2021/06/15 11:06:30;;;;;;;0.70;0.50;;;25.70;90.30;;;;;;5094097;28;20052;-84
2021/06/15 11:09:18;;;;;;;0.50;0.50;;;25.80;90.30;;;;;;5093694;28;20454;-84
2021/06/15 11:12:05;;;;;;;0.47;0.43;;;25.80;90.30;;;;;;5075789;28;20096;-84
2021/06/15 11:14:31;;;;;;;0.60;0.60;;;25.80;90.20;;;;;;5075440;28;20498;-85
2021/06/15 11:17:00;;;;;;;0.50;0.50;;;25.80;90.20;;;;;;5075614;28;20565;-85
2021/06/15 11:19:31;;;;;;;0.50;0.50;;;25.80;90.20;;;;;;5075724;28;20028;-85
2021/06/15 11:22:06;;;;;;;1.02;0.70;;;25.80;90.20;;;;;;5075560;28;20162;-85
2021/06/15 11:25:00;;;;;;;0.95;0.75;;;25.80;90.10;;;;;;5076837;28;20031;-85
2021/06/15 11:27:26;;;;;;;0.88;0.70;;;25.80;89.90;;;;;;5093378;28;20024;-84
2021/06/15 11:29:59;;;;;;;0.80;0.80;;;25.80;90.00;;;;;;5074882;28;20036;-87
2021/06/15 11:32:36;;;;;;;0.90;0.80;;;25.80;90.00;;;;;;5075565;28;20068;-85
2021/06/15 11:35:02;;;;;;;1.27;0.88;;;25.80;90.00;;;;;;5074342;28;20032;-84
2021/06/15 11:37:37;;;;;;;0.70;0.70;;;25.80;90.00;;;;;;5075220;28;20028;-84
2021/06/15 11:40:20;;;;;;;1.98;0.90;;;25.80;90.00;;;;;;5093281;28;20032;-83
2021/06/15 11:42:50;;;;;;;0.80;0.80;;;25.80;90.00;;;;;;5075373;28;20024;-84
2021/06/15 11:45:20;;;;;;;1.05;0.70;;;25.80;89.90;;;;;;5075047;28;20020;-84
2021/06/15 11:47:56;;;;;;;1.10;1.00;;;25.80;90.00;;;;;;5075046;28;20057;-84
2021/06/15 11:50:26;;;;;;;1.27;0.73;;;25.80;90.00;;;;;;5074827;28;20454;-84
2021/06/15 11:52:55;;;;;;;0.68;0.60;;;25.80;90.00;;;;;;5075032;28;20066;-84
2021/06/15 11:55:28;;;;;;;0.60;0.57;;;25.80;90.10;;;;;;5075098;28;20031;-84
2021/06/15 11:58:02;;;;;;;0.80;0.70;;;25.80;90.00;;;;;;5075023;28;20047;-84
2021/06/15 12:00:30;;;;;;;0.60;0.60;;;25.80;90.00;;;;;;5092959;28;20024;-83
2021/06/15 12:03:23;;;;;;;0.75;0.70;;;25.80;90.00;;;;;;5058283;28;20367;-87
2021/06/15 12:05:55;;;;;;;0.60;0.60;;;25.80;89.90;;;;;;5070395;28;20040;-84
2021/06/15 12:08:21;;;;;;;0.70;0.70;;;25.80;89.90;;;;;;5074145;28;20024;-84
2021/06/15 12:10:50;;;;;;;0.68;0.68;;;25.80;89.80;;;;;;5092633;28;20081;-84
2021/06/15 12:13:18;;;;;;;0.90;0.75;;;25.80;89.80;;;;;;5074405;28;20059;-84
2021/06/15 12:15:54;;;;;;;0.70;0.63;;;25.80;89.90;;;;;;5093003;28;20020;-84
2021/06/15 12:18:23;;;;;;;0.70;0.70;;;25.80;89.90;;;;;;5074590;28;20080;-84
2021/06/15 12:20:54;;;;;;;0.80;0.60;;;25.80;89.70;;;;;;5075031;28;20028;-84
2021/06/15 12:23:29;;;;;;;0.75;0.50;;;25.90;89.60;;;;;;5074591;28;20492;-84
2021/06/15 12:26:07;;;;;;;0.50;0.50;;;25.90;89.70;;;;;;5074334;28;20024;-84
2021/06/15 12:28:34;;;;;;;0.85;0.63;;;25.80;89.60;;;;;;5092353;28;20030;-85
2021/06/15 12:31:18;;;;;;;0.60;0.60;;;25.80;89.60;;;;;;5074258;28;20055;-85
2021/06/15 12:33:46;;;;;;;0.77;0.60;;;25.90;89.60;;;;;;5074733;28;20027;-84
2021/06/15 12:36:14;;;;;;;0.68;0.45;;;25.80;89.60;;;;;;5074737;28;20040;-84
2021/06/15 12:38:41;;;;;;;1.05;0.60;;;25.80;89.50;;;;;;5074577;28;20032;-84
2021/06/15 12:41:13;;;;;;;0.95;0.70;;;25.80;89.70;;;;;;5074436;28;20119;-84
2021/06/15 12:43:40;;;;;;;0.60;0.60;;;25.80;89.80;;;;;;5074620;28;20024;-84
2021/06/15 12:46:18;;;;;;;1.23;0.70;;;25.80;89.80;;;;;;5041091;28;20131;-84
2021/06/15 12:49:15;;;;;;;1.00;0.80;;;25.80;89.90;;;;;;5074427;28;20036;-83
2021/06/15 12:51:52;;;;;;;0.47;0.47;;;25.90;89.90;;;;;;5074507;28;20028;-84
2021/06/15 12:54:40;;;;;;;0.40;0.40;;;25.80;89.90;;;;;;5074288;28;20025;-84
2021/06/15 12:57:16;;;;;;;0.75;0.60;;;25.80;90.00;;;;;;5074128;28;20031;-84
2021/06/15 12:59:44;;;;;;;0.75;0.57;;;25.80;89.90;;;;;;5092569;28;20031;-84
2021/06/15 13:02:10;;;;;;;0.77;0.55;;;25.80;89.90;;;;;;5094834;28;20031;-84
2021/06/15 13:04:53;;;;;;;0.70;0.70;;;25.80;90.00;;;;;;5078182;28;20031;-84